sensor_id;sensor_type;location;lat;lon;timestamp;pressure;altitude;pressure_sealevel;temperature;humidity
71107;BME280;58763;47.982;11.516;2023-03-04T00:01:43;94466.94;;;0.22;90.81
71107;BME280;58763;47.982;11.516;2023-03-04T00:04:09;94468.19;;;0.19;90.90
71107;BME280;58763;47.982;11.516;2023-03-04T00:06:35;94475.22;;;0.07;90.99
71107;BME280;58763;47.982;11.516;2023-03-04T00:09:00;94474.78;;;0.10;90.81
71107;BME280;58763;47.982;11.516;2023-03-04T00:11:28;94473.97;;;0.10;90.96
71107;BME280;58763;47.982;11.516;2023-03-04T00:13:54;94462.19;;;-0.01;91.03
71107;BME280;58763;47.982;11.516;2023-03-04T00:16:20;94476.78;;;-0.10;91.65
71107;BME280;58763;47.982;11.516;2023-03-04T00:18:45;94473.69;;;-0.07;91.80
71107;BME280;58763;47.982;11.516;2023-03-04T00:21:11;94464.50;;;-0.11;91.76
71107;BME280;58763;47.982;11.516;2023-03-04T00:23:37;94470.88;;;-0.19;92.19
71107;BME280;58763;47.982;11.516;2023-03-04T00:26:02;94464.31;;;-0.16;92.37
71107;BME280;58763;47.982;11.516;2023-03-04T00:28:28;94473.38;;;-0.30;92.88
71107;BME280;58763;47.982;11.516;2023-03-04T00:30:53;94468.50;;;-0.33;92.92
71107;BME280;58763;47.982;11.516;2023-03-04T00:33:19;94474.00;;;-0.28;92.64
71107;BME280;58763;47.982;11.516;2023-03-04T00:35:45;94478.91;;;-0.32;93.25
71107;BME280;58763;47.982;11.516;2023-03-04T00:38:10;94472.50;;;-0.18;92.19
71107;BME280;58763;47.982;11.516;2023-03-04T00:40:36;94478.41;;;-0.16;92.12
71107;BME280;58763;47.982;11.516;2023-03-04T00:43:02;94479.44;;;-0.10;91.96
71107;BME280;58763;47.982;11.516;2023-03-04T00:45:27;94468.56;;;-0.09;92.29
71107;BME280;58763;47.982;11.516;2023-03-04T00:47:53;94476.09;;;0.01;91.68
71107;BME280;58763;47.982;11.516;2023-03-04T00:50:19;94478.50;;;0.03;91.20
71107;BME280;58763;47.982;11.516;2023-03-04T00:52:44;94472.13;;;0.10;91.09
71107;BME280;58763;47.982;11.516;2023-03-04T00:55:10;94475.22;;;0.07;91.06
71107;BME280;58763;47.982;11.516;2023-03-04T00:57:36;94475.66;;;0.04;90.93
71107;BME280;58763;47.982;11.516;2023-03-04T01:00:02;94471.63;;;-0.05;91.26
71107;BME280;58763;47.982;11.516;2023-03-04T01:02:29;94469.28;;;0.05;91.73
71107;BME280;58763;47.982;11.516;2023-03-04T01:04:54;94468.69;;;0.03;91.30
71107;BME280;58763;47.982;11.516;2023-03-04T01:07:20;94467.88;;;0.09;91.37
71107;BME280;58763;47.982;11.516;2023-03-04T01:09:45;94463.97;;;0.12;91.17
71107;BME280;58763;47.982;11.516;2023-03-04T01:12:11;94469.44;;;0.17;91.50
71107;BME280;58763;47.982;11.516;2023-03-04T01:14:36;94457.72;;;0.24;90.78
71107;BME280;58763;47.982;11.516;2023-03-04T01:17:02;94464.34;;;0.15;91.21
71107;BME280;58763;47.982;11.516;2023-03-04T01:19:28;94461.25;;;0.18;91.13
71107;BME280;58763;47.982;11.516;2023-03-04T01:21:53;94468.94;;;0.26;91.08
71107;BME280;58763;47.982;11.516;2023-03-04T01:24:19;94459.78;;;0.22;90.92
71107;BME280;58763;47.982;11.516;2023-03-04T01:26:45;94455.66;;;0.26;90.81
71107;BME280;58763;47.982;11.516;2023-03-04T01:29:10;94455.22;;;0.29;91.01
71107;BME280;58763;47.982;11.516;2023-03-04T01:31:36;94455.19;;;0.36;91.03
71107;BME280;58763;47.982;11.516;2023-03-04T01:34:01;94445.91;;;0.45;90.67
71107;BME280;58763;47.982;11.516;2023-03-04T01:36:28;94443.59;;;0.24;90.49
71107;BME280;58763;47.982;11.516;2023-03-04T01:38:53;94442.63;;;0.18;90.98
71107;BME280;58763;47.982;11.516;2023-03-04T01:41:23;94436.44;;;0.24;91.34
71107;BME280;58763;47.982;11.516;2023-03-04T01:43:49;94448.50;;;0.27;90.71
71107;BME280;58763;47.982;11.516;2023-03-04T01:46:15;94437.75;;;0.40;90.24
71107;BME280;58763;47.982;11.516;2023-03-04T01:48:42;94434.13;;;0.34;89.74
71107;BME280;58763;47.982;11.516;2023-03-04T01:51:14;94431.88;;;0.31;90.05
71107;BME280;58763;47.982;11.516;2023-03-04T01:53:41;94434.19;;;0.28;89.82
71107;BME280;58763;47.982;11.516;2023-03-04T01:56:28;94434.31;;;0.33;90.05
71107;BME280;58763;47.982;11.516;2023-03-04T02:01:38;94424.69;;;0.38;89.73
71107;BME280;58763;47.982;11.516;2023-03-04T02:04:06;94420.13;;;0.45;89.94
71107;BME280;58763;47.982;11.516;2023-03-04T02:06:33;94420.28;;;0.50;90.07
71107;BME280;58763;47.982;11.516;2023-03-04T02:08:59;94420.59;;;0.60;89.93
71107;BME280;58763;47.982;11.516;2023-03-04T02:11:25;94415.41;;;0.65;89.50
71107;BME280;58763;47.982;11.516;2023-03-04T02:13:51;94415.06;;;0.62;89.84
71107;BME280;58763;47.982;11.516;2023-03-04T02:16:17;94412.63;;;0.60;90.43
71107;BME280;58763;47.982;11.516;2023-03-04T02:18:43;94403.72;;;0.48;91.31
71107;BME280;58763;47.982;11.516;2023-03-04T02:24:16;94401.31;;;0.40;91.58
71107;BME280;58763;47.982;11.516;2023-03-04T02:26:44;94409.19;;;0.29;90.90
71107;BME280;58763;47.982;11.516;2023-03-04T02:29:12;94397.06;;;0.39;91.26
71107;BME280;58763;47.982;11.516;2023-03-04T02:31:44;94397.72;;;0.35;90.32
71107;BME280;58763;47.982;11.516;2023-03-04T02:34:19;94400.16;;;0.36;90.09
71107;BME280;58763;47.982;11.516;2023-03-04T02:36:47;94392.47;;;0.22;90.71
71107;BME280;58763;47.982;11.516;2023-03-04T02:41:44;94397.75;;;0.28;90.42
71107;BME280;58763;47.982;11.516;2023-03-04T02:44:24;94398.84;;;0.21;90.88
71107;BME280;58763;47.982;11.516;2023-03-04T02:46:50;94384.41;;;0.10;90.86
71107;BME280;58763;47.982;11.516;2023-03-04T02:49:16;94396.38;;;-0.06;91.77
71107;BME280;58763;47.982;11.516;2023-03-04T02:51:43;94395.78;;;-0.08;91.48
71107;BME280;58763;47.982;11.516;2023-03-04T02:54:16;94389.59;;;-0.02;91.11
71107;BME280;58763;47.982;11.516;2023-03-04T02:56:50;94393.69;;;0.01;91.05
71107;BME280;58763;47.982;11.516;2023-03-04T02:59:16;94395.38;;;-0.11;91.39
71107;BME280;58763;47.982;11.516;2023-03-04T03:01:42;94400.72;;;-0.11;90.84
71107;BME280;58763;47.982;11.516;2023-03-04T03:04:08;94388.19;;;-0.04;90.85
71107;BME280;58763;47.982;11.516;2023-03-04T03:06:33;94389.78;;;0.04;90.61
71107;BME280;58763;47.982;11.516;2023-03-04T03:08:59;94396.94;;;0.03;90.71
71107;BME280;58763;47.982;11.516;2023-03-04T03:11:25;94393.25;;;0.04;91.46
71107;BME280;58763;47.982;11.516;2023-03-04T03:13:50;94393.84;;;0.06;91.80
71107;BME280;58763;47.982;11.516;2023-03-04T03:16:16;94397.69;;;0.10;91.39
71107;BME280;58763;47.982;11.516;2023-03-04T03:18:41;94398.41;;;-0.01;91.70
71107;BME280;58763;47.982;11.516;2023-03-04T03:21:07;94396.34;;;0.01;91.46
71107;BME280;58763;47.982;11.516;2023-03-04T03:23:33;94397.53;;;0.05;91.42
71107;BME280;58763;47.982;11.516;2023-03-04T03:25:59;94397.75;;;0.04;91.39
71107;BME280;58763;47.982;11.516;2023-03-04T03:28:25;94396.28;;;0.08;91.05
71107;BME280;58763;47.982;11.516;2023-03-04T03:30:51;94392.22;;;0.05;90.85
71107;BME280;58763;47.982;11.516;2023-03-04T03:33:16;94390.47;;;-0.08;90.34
71107;BME280;58763;47.982;11.516;2023-03-04T03:35:42;94389.44;;;-0.07;90.15
71107;BME280;58763;47.982;11.516;2023-03-04T03:38:07;94391.13;;;-0.19;90.99
71107;BME280;58763;47.982;11.516;2023-03-04T03:40:33;94393.91;;;-0.32;91.36
71107;BME280;58763;47.982;11.516;2023-03-04T03:42:59;94391.78;;;-0.23;91.34
71107;BME280;58763;47.982;11.516;2023-03-04T03:45:24;94391.31;;;-0.14;90.69
71107;BME280;58763;47.982;11.516;2023-03-04T03:47:50;94402.00;;;-0.20;90.58
71107;BME280;58763;47.982;11.516;2023-03-04T03:50:16;94394.56;;;-0.12;90.54
71107;BME280;58763;47.982;11.516;2023-03-04T03:52:41;94403.38;;;-0.11;90.39
71107;BME280;58763;47.982;11.516;2023-03-04T03:55:07;94396.25;;;-0.17;90.55
71107;BME280;58763;47.982;11.516;2023-03-04T03:57:33;94396.44;;;-0.12;90.17
71107;BME280;58763;47.982;11.516;2023-03-04T03:59:58;94392.72;;;-0.11;89.88
71107;BME280;58763;47.982;11.516;2023-03-04T04:02:24;94395.38;;;-0.11;90.07
71107;BME280;58763;47.982;11.516;2023-03-04T04:04:50;94394.56;;;-0.05;90.08
71107;BME280;58763;47.982;11.516;2023-03-04T04:07:15;94397.03;;;-0.10;89.87
71107;BME280;58763;47.982;11.516;2023-03-04T04:09:41;94400.88;;;-0.06;89.53
71107;BME280;58763;47.982;11.516;2023-03-04T04:12:07;94399.88;;;-0.05;89.71
71107;BME280;58763;47.982;11.516;2023-03-04T04:14:34;94402.88;;;-0.02;89.65
71107;BME280;58763;47.982;11.516;2023-03-04T04:17:00;94406.53;;;0.04;89.23
71107;BME280;58763;47.982;11.516;2023-03-04T04:19:25;94408.00;;;0.00;89.40
71107;BME280;58763;47.982;11.516;2023-03-04T04:21:51;94411.84;;;0.04;89.18
71107;BME280;58763;47.982;11.516;2023-03-04T04:24:17;94402.75;;;0.18;89.02
71107;BME280;58763;47.982;11.516;2023-03-04T04:26:44;94403.59;;;0.12;87.66
71107;BME280;58763;47.982;11.516;2023-03-04T04:29:12;94400.19;;;0.05;86.79
71107;BME280;58763;47.982;11.516;2023-03-04T04:31:39;94403.31;;;-0.05;87.10
71107;BME280;58763;47.982;11.516;2023-03-04T04:34:04;94401.53;;;-0.11;87.33
71107;BME280;58763;47.982;11.516;2023-03-04T04:36:30;94400.16;;;-0.20;87.26
71107;BME280;58763;47.982;11.516;2023-03-04T04:38:56;94401.22;;;-0.27;87.72
71107;BME280;58763;47.982;11.516;2023-03-04T04:41:24;94399.47;;;-0.40;87.72
71107;BME280;58763;47.982;11.516;2023-03-04T04:43:50;94399.91;;;-0.43;88.26
71107;BME280;58763;47.982;11.516;2023-03-04T04:46:17;94398.28;;;-0.50;88.34
71107;BME280;58763;47.982;11.516;2023-03-04T04:48:43;94396.50;;;-0.56;88.66
71107;BME280;58763;47.982;11.516;2023-03-04T04:51:10;94401.03;;;-0.63;88.99
71107;BME280;58763;47.982;11.516;2023-03-04T04:53:35;94402.28;;;-0.66;88.79
71107;BME280;58763;47.982;11.516;2023-03-04T04:56:08;94400.88;;;-0.75;89.33
71107;BME280;58763;47.982;11.516;2023-03-04T04:58:35;94395.38;;;-0.80;89.30
71107;BME280;58763;47.982;11.516;2023-03-04T05:01:00;94399.66;;;-0.73;89.41
71107;BME280;58763;47.982;11.516;2023-03-04T05:03:26;94396.53;;;-0.70;89.23
71107;BME280;58763;47.982;11.516;2023-03-04T05:05:51;94395.56;;;-0.75;88.87
71107;BME280;58763;47.982;11.516;2023-03-04T05:08:17;94397.22;;;-0.81;89.05
71107;BME280;58763;47.982;11.516;2023-03-04T05:10:42;94396.44;;;-0.88;89.61
71107;BME280;58763;47.982;11.516;2023-03-04T05:13:08;94394.63;;;-0.94;89.42
71107;BME280;58763;47.982;11.516;2023-03-04T05:15:33;94397.09;;;-0.99;89.89
71107;BME280;58763;47.982;11.516;2023-03-04T05:17:59;94399.53;;;-0.97;90.06
71107;BME280;58763;47.982;11.516;2023-03-04T05:20:24;94398.91;;;-0.93;89.42
71107;BME280;58763;47.982;11.516;2023-03-04T05:22:51;94403.38;;;-0.93;89.43
71107;BME280;58763;47.982;11.516;2023-03-04T05:25:17;94402.75;;;-0.89;89.30
71107;BME280;58763;47.982;11.516;2023-03-04T05:27:43;94399.34;;;-0.96;89.96
71107;BME280;58763;47.982;11.516;2023-03-04T05:30:10;94404.63;;;-0.89;89.24
71107;BME280;58763;47.982;11.516;2023-03-04T05:32:35;94403.41;;;-1.00;89.71
71107;BME280;58763;47.982;11.516;2023-03-04T05:35:01;94408.69;;;-0.93;89.96
71107;BME280;58763;47.982;11.516;2023-03-04T05:37:26;94394.63;;;-1.00;89.83
71107;BME280;58763;47.982;11.516;2023-03-04T05:39:52;94402.81;;;-1.02;89.62
71107;BME280;58763;47.982;11.516;2023-03-04T05:42:18;94397.28;;;-1.00;89.48
71107;BME280;58763;47.982;11.516;2023-03-04T05:44:43;94408.38;;;-1.10;89.94
71107;BME280;58763;47.982;11.516;2023-03-04T05:47:09;94405.09;;;-1.12;89.73
71107;BME280;58763;47.982;11.516;2023-03-04T05:49:34;94407.53;;;-1.04;89.59
71107;BME280;58763;47.982;11.516;2023-03-04T05:52:00;94408.78;;;-1.13;89.62
71107;BME280;58763;47.982;11.516;2023-03-04T05:54:26;94407.53;;;-1.10;89.50
71107;BME280;58763;47.982;11.516;2023-03-04T05:56:51;94416.13;;;-1.15;89.78
71107;BME280;58763;47.982;11.516;2023-03-04T05:59:17;94415.69;;;-1.12;89.82
71107;BME280;58763;47.982;11.516;2023-03-04T06:01:45;94406.31;;;-1.08;89.98
71107;BME280;58763;47.982;11.516;2023-03-04T06:04:11;94411.81;;;-1.09;90.24
71107;BME280;58763;47.982;11.516;2023-03-04T06:06:36;94415.69;;;-1.12;90.03
71107;BME280;58763;47.982;11.516;2023-03-04T06:09:02;94405.53;;;-1.28;90.10
71107;BME280;58763;47.982;11.516;2023-03-04T06:11:28;94414.75;;;-1.37;90.39
71107;BME280;58763;47.982;11.516;2023-03-04T06:13:54;94423.31;;;-1.35;91.00
71107;BME280;58763;47.982;11.516;2023-03-04T06:16:20;94428.84;;;-1.43;91.09
71107;BME280;58763;47.982;11.516;2023-03-04T06:18:45;94424.75;;;-1.39;91.33
71107;BME280;58763;47.982;11.516;2023-03-04T06:21:11;94417.59;;;-1.32;91.25
71107;BME280;58763;47.982;11.516;2023-03-04T06:23:36;94424.53;;;-1.38;90.68
71107;BME280;58763;47.982;11.516;2023-03-04T06:26:02;94436.16;;;-1.32;90.66
71107;BME280;58763;47.982;11.516;2023-03-04T06:28:28;94436.56;;;-1.28;90.62
71107;BME280;58763;47.982;11.516;2023-03-04T06:30:55;94442.69;;;-1.28;91.03
71107;BME280;58763;47.982;11.516;2023-03-04T06:33:21;94438.19;;;-1.27;90.55
71107;BME280;58763;47.982;11.516;2023-03-04T06:35:46;94438.44;;;-1.35;90.95
71107;BME280;58763;47.982;11.516;2023-03-04T06:38:12;94444.31;;;-1.27;90.94
71107;BME280;58763;47.982;11.516;2023-03-04T06:40:38;94444.16;;;-1.45;91.56
71107;BME280;58763;47.982;11.516;2023-03-04T06:43:03;94444.75;;;-1.43;91.86
71107;BME280;58763;47.982;11.516;2023-03-04T06:45:29;94445.16;;;-1.40;91.56
71107;BME280;58763;47.982;11.516;2023-03-04T06:47:54;94450.47;;;-1.46;92.21
71107;BME280;58763;47.982;11.516;2023-03-04T06:50:20;94456.19;;;-1.43;92.43
71107;BME280;58763;47.982;11.516;2023-03-04T06:52:46;94446.56;;;-1.37;92.37
71107;BME280;58763;47.982;11.516;2023-03-04T06:55:13;94452.06;;;-1.25;91.84
71107;BME280;58763;47.982;11.516;2023-03-04T06:57:38;94452.06;;;-1.32;92.11
71107;BME280;58763;47.982;11.516;2023-03-04T07:00:04;94456.97;;;-1.22;92.68
71107;BME280;58763;47.982;11.516;2023-03-04T07:02:30;94456.56;;;-1.19;92.38
71107;BME280;58763;47.982;11.516;2023-03-04T07:04:56;94459.78;;;-1.11;91.97
71107;BME280;58763;47.982;11.516;2023-03-04T07:07:21;94458.75;;;-0.97;91.73
71107;BME280;58763;47.982;11.516;2023-03-04T07:09:47;94460.56;;;-0.97;92.31
71107;BME280;58763;47.982;11.516;2023-03-04T07:12:14;94457.28;;;-0.93;91.85
71107;BME280;58763;47.982;11.516;2023-03-04T07:14:40;94461.81;;;-1.00;91.46
71107;BME280;58763;47.982;11.516;2023-03-04T07:17:05;94461.41;;;-0.97;91.71
71107;BME280;58763;47.982;11.516;2023-03-04T07:19:31;94458.50;;;-0.89;91.72
71107;BME280;58763;47.982;11.516;2023-03-04T07:21:57;94454.81;;;-0.81;91.92
71107;BME280;58763;47.982;11.516;2023-03-04T07:24:22;94463.81;;;-0.82;91.34
71107;BME280;58763;47.982;11.516;2023-03-04T07:26:48;94461.75;;;-0.80;91.80
71107;BME280;58763;47.982;11.516;2023-03-04T07:29:13;94465.88;;;-0.84;91.89
71107;BME280;58763;47.982;11.516;2023-03-04T07:31:45;94466.28;;;-0.87;91.84
71107;BME280;58763;47.982;11.516;2023-03-04T07:34:12;94469.47;;;-0.72;91.79
71107;BME280;58763;47.982;11.516;2023-03-04T07:36:38;94473.56;;;-0.70;91.63
71107;BME280;58763;47.982;11.516;2023-03-04T07:39:05;94477.00;;;-0.62;91.48
71107;BME280;58763;47.982;11.516;2023-03-04T07:41:31;94478.22;;;-0.65;91.25
71107;BME280;58763;47.982;11.516;2023-03-04T07:44:01;94483.72;;;-0.60;91.33
71107;BME280;58763;47.982;11.516;2023-03-04T07:46:26;94485.41;;;-0.65;92.06
71107;BME280;58763;47.982;11.516;2023-03-04T07:48:54;94489.25;;;-0.61;92.20
71107;BME280;58763;47.982;11.516;2023-03-04T07:51:21;94488.22;;;-0.60;92.34
71107;BME280;58763;47.982;11.516;2023-03-04T07:53:49;94493.13;;;-0.57;92.62
71107;BME280;58763;47.982;11.516;2023-03-04T07:56:18;94488.22;;;-0.54;92.37
71107;BME280;58763;47.982;11.516;2023-03-04T07:58:44;94485.75;;;-0.55;92.71
71107;BME280;58763;47.982;11.516;2023-03-04T08:01:16;94485.56;;;-0.54;93.06
71107;BME280;58763;47.982;11.516;2023-03-04T08:03:42;94491.47;;;-0.52;93.44
71107;BME280;58763;47.982;11.516;2023-03-04T08:06:10;94495.94;;;-0.46;92.75
71107;BME280;58763;47.982;11.516;2023-03-04T08:08:36;94486.50;;;-0.35;93.32
71107;BME280;58763;47.982;11.516;2023-03-04T08:11:11;94488.69;;;-0.19;92.83
71107;BME280;58763;47.982;11.516;2023-03-04T08:13:37;94492.06;;;-0.06;92.75
71107;BME280;58763;47.982;11.516;2023-03-04T08:16:04;94496.06;;;0.10;92.83
71107;BME280;58763;47.982;11.516;2023-03-04T08:18:30;94498.66;;;0.23;92.55
71107;BME280;58763;47.982;11.516;2023-03-04T08:20:56;94488.38;;;0.27;91.99
71107;BME280;58763;47.982;11.516;2023-03-04T08:23:21;94496.50;;;0.38;92.30
71107;BME280;58763;47.982;11.516;2023-03-04T08:25:47;94502.03;;;0.61;92.28
71107;BME280;58763;47.982;11.516;2023-03-04T08:28:13;94501.66;;;0.83;91.57
71107;BME280;58763;47.982;11.516;2023-03-04T08:30:39;94500.59;;;0.90;90.38
71107;BME280;58763;47.982;11.516;2023-03-04T08:33:05;94500.19;;;1.11;90.46
71107;BME280;58763;47.982;11.516;2023-03-04T08:35:31;94496.78;;;1.22;89.84
71107;BME280;58763;47.982;11.516;2023-03-04T08:37:57;94501.53;;;1.38;88.79
71107;BME280;58763;47.982;11.516;2023-03-04T08:40:22;94502.50;;;1.62;88.75
71107;BME280;58763;47.982;11.516;2023-03-04T08:42:51;94496.19;;;1.75;88.20
71107;BME280;58763;47.982;11.516;2023-03-04T08:45:16;94497.09;;;1.98;87.76
71107;BME280;58763;47.982;11.516;2023-03-04T08:47:42;94496.94;;;2.12;86.91
71107;BME280;58763;47.982;11.516;2023-03-04T08:50:09;94500.34;;;2.19;86.18
71107;BME280;58763;47.982;11.516;2023-03-04T08:52:35;94498.06;;;2.34;85.91
71107;BME280;58763;47.982;11.516;2023-03-04T08:55:01;94501.16;;;2.60;85.86
71107;BME280;58763;47.982;11.516;2023-03-04T08:57:27;94497.22;;;2.63;84.11
71107;BME280;58763;47.982;11.516;2023-03-04T08:59:53;94498.78;;;2.82;83.63
71107;BME280;58763;47.982;11.516;2023-03-04T09:02:18;94498.44;;;3.02;83.29
71107;BME280;58763;47.982;11.516;2023-03-04T09:04:45;94499.00;;;3.15;81.42
71107;BME280;58763;47.982;11.516;2023-03-04T09:07:11;94488.00;;;3.12;81.58
71107;BME280;58763;47.982;11.516;2023-03-04T09:09:38;94493.66;;;3.15;81.25
71107;BME280;58763;47.982;11.516;2023-03-04T09:12:05;94498.44;;;3.25;80.80
71107;BME280;58763;47.982;11.516;2023-03-04T09:14:34;94493.91;;;3.25;79.82
71107;BME280;58763;47.982;11.516;2023-03-04T09:17:03;94489.13;;;3.39;80.23
71107;BME280;58763;47.982;11.516;2023-03-04T09:19:30;94488.53;;;3.48;79.28
71107;BME280;58763;47.982;11.516;2023-03-04T09:21:56;94483.63;;;3.57;79.23
71107;BME280;58763;47.982;11.516;2023-03-04T09:24:24;94488.50;;;3.72;77.94
71107;BME280;58763;47.982;11.516;2023-03-04T09:26:51;94482.91;;;3.85;77.16
71107;BME280;58763;47.982;11.516;2023-03-04T09:29:17;94478.94;;;3.76;76.52
71107;BME280;58763;47.982;11.516;2023-03-04T09:31:42;94476.72;;;3.96;78.02
71107;BME280;58763;47.982;11.516;2023-03-04T09:34:08;94477.09;;;4.16;76.43
71107;BME280;58763;47.982;11.516;2023-03-04T09:36:33;94479.81;;;4.04;75.58
71107;BME280;58763;47.982;11.516;2023-03-04T09:39:00;94474.09;;;4.12;75.86
71107;BME280;58763;47.982;11.516;2023-03-04T09:41:46;94478.25;;;4.20;76.13
71107;BME280;58763;47.982;11.516;2023-03-04T09:44:23;94475.13;;;4.40;74.93
71107;BME280;58763;47.982;11.516;2023-03-04T09:46:50;94466.84;;;4.25;73.63
71107;BME280;58763;47.982;11.516;2023-03-04T09:49:18;94468.13;;;4.22;74.63
71107;BME280;58763;47.982;11.516;2023-03-04T10:00:17;94471.03;;;4.82;73.85
71107;BME280;58763;47.982;11.516;2023-03-04T10:05:57;94461.38;;;4.98;73.29
71107;BME280;58763;47.982;11.516;2023-03-04T10:11:00;94469.41;;;5.31;73.01
71107;BME280;58763;47.982;11.516;2023-03-04T10:13:35;94460.03;;;5.50;73.10
71107;BME280;58763;47.982;11.516;2023-03-04T10:16:04;94459.84;;;5.56;72.52
71107;BME280;58763;47.982;11.516;2023-03-04T10:18:41;94454.00;;;5.59;72.04
71107;BME280;58763;47.982;11.516;2023-03-04T10:21:31;94454.56;;;5.83;69.67
71107;BME280;58763;47.982;11.516;2023-03-04T10:24:04;94447.00;;;5.80;70.68
71107;BME280;58763;47.982;11.516;2023-03-04T10:26:33;94453.16;;;5.97;69.46
71107;BME280;58763;47.982;11.516;2023-03-04T10:28:58;94450.72;;;5.96;67.01
71107;BME280;58763;47.982;11.516;2023-03-04T10:31:36;94450.97;;;5.94;65.80
71107;BME280;58763;47.982;11.516;2023-03-04T10:34:03;94441.75;;;5.85;67.08
71107;BME280;58763;47.982;11.516;2023-03-04T10:39:29;94441.47;;;6.08;66.92
71107;BME280;58763;47.982;11.516;2023-03-04T10:42:03;94438.94;;;6.23;66.58
71107;BME280;58763;47.982;11.516;2023-03-04T10:44:31;94441.72;;;6.55;66.91
71107;BME280;58763;47.982;11.516;2023-03-04T10:46:59;94435.19;;;6.46;65.05
71107;BME280;58763;47.982;11.516;2023-03-04T10:49:26;94433.19;;;6.37;65.40
71107;BME280;58763;47.982;11.516;2023-03-04T10:54:37;94431.16;;;6.49;66.18
71107;BME280;58763;47.982;11.516;2023-03-04T10:59:45;94426.75;;;6.64;63.51
71107;BME280;58763;47.982;11.516;2023-03-04T11:04:41;94413.25;;;6.59;63.42
71107;BME280;58763;47.982;11.516;2023-03-04T11:07:10;94417.97;;;6.74;61.78
71107;BME280;58763;47.982;11.516;2023-03-04T11:09:36;94412.31;;;6.75;62.67
71107;BME280;58763;47.982;11.516;2023-03-04T11:12:10;94417.63;;;6.39;62.80
71107;BME280;58763;47.982;11.516;2023-03-04T11:14:40;94419.03;;;6.19;63.48
71107;BME280;58763;47.982;11.516;2023-03-04T11:17:18;94403.53;;;6.53;63.16
71107;BME280;58763;47.982;11.516;2023-03-04T11:19:47;94406.00;;;6.60;62.20
71107;BME280;58763;47.982;11.516;2023-03-04T11:22:17;94405.25;;;6.64;61.41
71107;BME280;58763;47.982;11.516;2023-03-04T11:24:53;94408.50;;;6.40;63.19
71107;BME280;58763;47.982;11.516;2023-03-04T11:27:24;94401.34;;;6.50;61.92
71107;BME280;58763;47.982;11.516;2023-03-04T11:32:40;94397.47;;;6.68;61.35
71107;BME280;58763;47.982;11.516;2023-03-04T11:35:19;94386.38;;;6.59;62.62
71107;BME280;58763;47.982;11.516;2023-03-04T11:40:45;94393.34;;;6.87;61.04
71107;BME280;58763;47.982;11.516;2023-03-04T11:43:23;94388.09;;;7.07;59.60
71107;BME280;58763;47.982;11.516;2023-03-04T11:48:56;94387.34;;;7.17;58.70
71107;BME280;58763;47.982;11.516;2023-03-04T11:54:34;94394.19;;;7.34;57.27
71107;BME280;58763;47.982;11.516;2023-03-04T11:57:11;94389.59;;;6.88;55.62
71107;BME280;58763;47.982;11.516;2023-03-04T12:02:21;94381.56;;;6.98;57.91
71107;BME280;58763;47.982;11.516;2023-03-04T12:07:54;94376.56;;;7.63;56.50
71107;BME280;58763;47.982;11.516;2023-03-04T12:10:45;94377.19;;;7.24;58.50
71107;BME280;58763;47.982;11.516;2023-03-04T12:16:51;94363.41;;;7.62;59.01
71107;BME280;58763;47.982;11.516;2023-03-04T12:19:26;94359.75;;;7.98;58.12
71107;BME280;58763;47.982;11.516;2023-03-04T12:24:52;94357.31;;;7.92;56.18
71107;BME280;58763;47.982;11.516;2023-03-04T12:29:57;94350.06;;;7.97;54.48
71107;BME280;58763;47.982;11.516;2023-03-04T12:35:45;94344.91;;;7.81;54.79
71107;BME280;58763;47.982;11.516;2023-03-04T12:38:26;94344.72;;;7.40;52.86
71107;BME280;58763;47.982;11.516;2023-03-04T12:43:53;94337.31;;;7.62;53.59
71107;BME280;58763;47.982;11.516;2023-03-04T12:46:30;94336.78;;;7.71;54.73
71107;BME280;58763;47.982;11.516;2023-03-04T12:49:11;94327.25;;;7.43;54.98
71107;BME280;58763;47.982;11.516;2023-03-04T12:54:48;94329.13;;;7.42;56.63
71107;BME280;58763;47.982;11.516;2023-03-04T12:57:21;94322.63;;;7.33;55.53
71107;BME280;58763;47.982;11.516;2023-03-04T13:10:42;94309.88;;;7.71;57.86
71107;BME280;58763;47.982;11.516;2023-03-04T13:13:39;94309.53;;;7.52;56.48
71107;BME280;58763;47.982;11.516;2023-03-04T13:18:54;94301.81;;;7.81;57.72
71107;BME280;58763;47.982;11.516;2023-03-04T13:23:48;94292.16;;;7.90;57.00
71107;BME280;58763;47.982;11.516;2023-03-04T13:26:28;94295.41;;;8.02;55.95
71107;BME280;58763;47.982;11.516;2023-03-04T13:29:09;94294.31;;;8.03;55.38
71107;BME280;58763;47.982;11.516;2023-03-04T13:34:42;94287.84;;;7.89;57.16
71107;BME280;58763;47.982;11.516;2023-03-04T13:37:26;94285.16;;;7.94;57.86
71107;BME280;58763;47.982;11.516;2023-03-04T13:40:22;94281.13;;;7.86;55.91
71107;BME280;58763;47.982;11.516;2023-03-04T13:42:55;94283.28;;;7.94;55.23
71107;BME280;58763;47.982;11.516;2023-03-04T13:45:40;94284.78;;;7.55;57.51
71107;BME280;58763;47.982;11.516;2023-03-04T13:58:52;94272.84;;;7.31;57.01
71107;BME280;58763;47.982;11.516;2023-03-04T14:01:32;94281.72;;;6.74;59.28
71107;BME280;58763;47.982;11.516;2023-03-04T14:04:08;94271.72;;;6.70;60.13
71107;BME280;58763;47.982;11.516;2023-03-04T14:06:40;94268.78;;;6.30;60.56
71107;BME280;58763;47.982;11.516;2023-03-04T14:09:21;94274.16;;;6.30;60.65
71107;BME280;58763;47.982;11.516;2023-03-04T14:11:49;94267.78;;;6.41;60.95
71107;BME280;58763;47.982;11.516;2023-03-04T14:14:19;94267.91;;;6.56;60.79
71107;BME280;58763;47.982;11.516;2023-03-04T14:16:48;94264.22;;;6.35;58.93
71107;BME280;58763;47.982;11.516;2023-03-04T14:19:37;94270.88;;;6.22;59.86
71107;BME280;58763;47.982;11.516;2023-03-04T14:24:57;94270.47;;;6.82;59.47
71107;BME280;58763;47.982;11.516;2023-03-04T14:27:23;94264.88;;;6.94;59.07
71107;BME280;58763;47.982;11.516;2023-03-04T14:29:56;94264.34;;;6.50;59.41
71107;BME280;58763;47.982;11.516;2023-03-04T14:32:22;94259.06;;;6.60;59.30
71107;BME280;58763;47.982;11.516;2023-03-04T14:34:49;94254.22;;;6.25;59.97
71107;BME280;58763;47.982;11.516;2023-03-04T14:37:23;94248.03;;;6.20;59.78
71107;BME280;58763;47.982;11.516;2023-03-04T14:39:55;94248.16;;;6.03;60.18
71107;BME280;58763;47.982;11.516;2023-03-04T14:42:24;94243.25;;;6.27;59.94